createdAt,value
2023-05-13T00:00:47.398Z,70.34
2023-05-13T00:05:48.998Z,69.92
2023-05-13T00:10:50.896Z,70.55
2023-05-13T00:15:52.998Z,70.80
2023-05-13T00:20:54.724Z,71.85
2023-05-13T00:25:56.404Z,73.09
2023-05-13T00:30:58.008Z,73.14
2023-05-13T00:35:59.844Z,72.90
2023-05-13T00:41:02.974Z,72.91
2023-05-13T00:46:05.013Z,73.27
2023-05-13T00:51:07.529Z,73.58
2023-05-13T00:56:09.199Z,73.34
2023-05-13T01:01:50.614Z,73.49
2023-05-13T01:07:12.475Z,72.56
2023-05-13T01:12:21.708Z,72.54
2023-05-13T01:17:32.145Z,72.11
2023-05-13T01:22:34.136Z,71.93
2023-05-13T01:27:36.058Z,71.32
2023-05-13T01:32:38.848Z,71.91
2023-05-13T01:37:41.520Z,71.71
2023-05-13T01:42:43.536Z,71.98
2023-05-13T01:47:47.788Z,72.24
2023-05-13T01:52:51.061Z,73.30
2023-05-13T01:57:53.022Z,72.97
2023-05-13T02:02:54.898Z,72.92
2023-05-13T02:07:56.599Z,71.80
2023-05-13T02:12:58.256Z,70.77
2023-05-13T02:17:59.974Z,69.67
2023-05-13T02:23:01.725Z,68.97
2023-05-13T02:28:03.493Z,69.23
2023-05-13T02:33:05.136Z,68.30
2023-05-13T02:38:09.874Z,68.14
2023-05-13T02:43:11.670Z,67.50
2023-05-13T02:48:26.862Z,68.28
2023-05-13T02:53:28.702Z,68.87
2023-05-13T02:58:35.229Z,70.69
2023-05-13T03:08:38.958Z,73.21
2023-05-13T03:13:40.593Z,74.23
2023-05-13T03:18:42.285Z,75.55
2023-05-13T03:23:45.601Z,76.59
2023-05-13T03:28:47.687Z,77.71
2023-05-13T03:33:50.575Z,77.80
2023-05-13T03:38:52.453Z,79.40
2023-05-13T03:43:54.807Z,79.49
2023-05-13T03:48:57.254Z,79.65
2023-05-13T03:54:02.376Z,80.24
2023-05-13T03:59:04.107Z,79.73
2023-05-13T04:04:05.867Z,80.89
2023-05-13T04:09:07.756Z,81.29
2023-05-13T04:14:10.979Z,81.94
2023-05-13T04:19:12.806Z,81.66
2023-05-13T04:24:15.215Z,82.07
2023-05-13T04:29:18.062Z,82.02
2023-05-13T04:34:19.953Z,82.53
2023-05-13T04:39:22.404Z,82.02
2023-05-13T04:44:24.132Z,82.57
2023-05-13T04:49:25.800Z,82.60
2023-05-13T04:54:28.197Z,82.03
2023-05-13T04:59:30.257Z,81.64
2023-05-13T05:04:31.975Z,83.02
2023-05-13T05:09:34.080Z,82.07
2023-05-13T05:14:35.727Z,81.65
2023-05-13T05:19:37.366Z,82.37
2023-05-13T05:24:39.454Z,83.67
2023-05-13T05:29:41.930Z,83.54
2023-05-13T05:34:43.742Z,84.33
2023-05-13T05:39:48.083Z,84.39
2023-05-13T05:44:49.961Z,84.20
2023-05-13T05:49:52.652Z,84.64
2023-05-13T05:54:54.509Z,84.69
2023-05-13T05:59:56.160Z,84.76
2023-05-13T06:04:57.943Z,83.74
2023-05-13T06:09:59.662Z,84.01
2023-05-13T06:15:01.815Z,83.29
2023-05-13T06:20:04.219Z,82.66
2023-05-13T06:25:06.102Z,81.46
2023-05-13T06:30:08.738Z,80.89
2023-05-13T06:35:11.241Z,79.05
2023-05-13T06:40:13.075Z,79.19
2023-05-13T06:45:18.564Z,77.89
2023-05-13T06:50:21.328Z,75.90
2023-05-13T06:55:23.188Z,74.98
2023-05-13T07:00:24.954Z,74.07
2023-05-13T07:05:27.058Z,73.14
2023-05-13T07:10:28.752Z,72.13
2023-05-13T07:15:30.562Z,71.37
2023-05-13T07:20:32.321Z,69.89
2023-05-13T07:25:34.109Z,67.91
2023-05-13T07:30:35.938Z,66.22
2023-05-13T07:35:37.855Z,64.75
2023-05-13T07:40:39.707Z,64.53
2023-05-13T07:45:42.387Z,63.29
2023-05-13T07:50:46.929Z,64.46
2023-05-13T07:55:48.651Z,63.73
2023-05-13T08:00:50.472Z,64.91
2023-05-13T08:05:52.325Z,61.29
2023-05-13T08:10:54.082Z,60.19
2023-05-13T08:15:55.949Z,59.56
2023-05-13T08:20:57.674Z,59.36
2023-05-13T08:25:59.404Z,56.67
2023-05-13T08:31:03.433Z,56.40
2023-05-13T08:36:05.730Z,54.31
2023-05-13T08:41:07.847Z,53.67
2023-05-13T08:46:11.942Z,54.11
2023-05-13T08:51:14.034Z,51.55
2023-05-13T08:56:17.203Z,50.80
2023-05-13T09:01:18.995Z,51.51
2023-05-13T09:06:20.965Z,50.29
2023-05-13T09:11:23.333Z,48.74
2023-05-13T09:16:25.997Z,51.79
2023-05-13T09:21:31.925Z,49.04
2023-05-13T09:26:33.647Z,49.01
2023-05-13T09:31:35.402Z,50.43
2023-05-13T09:36:39.330Z,49.98
2023-05-13T09:41:42.521Z,50.25
2023-05-13T09:46:46.903Z,48.94
2023-05-13T09:51:48.570Z,48.81
2023-05-13T09:56:58.120Z,49.40
2023-05-13T10:02:04.536Z,49.54
2023-05-13T10:07:07.330Z,47.57
2023-05-13T10:12:14.295Z,48.12
2023-05-13T10:17:21.326Z,47.34
2023-05-13T10:22:31.508Z,46.78
2023-05-13T10:27:34.442Z,46.68
2023-05-13T10:32:41.292Z,47.06
2023-05-13T10:38:03.673Z,47.36
2023-05-13T10:43:22.325Z,46.00
2023-05-13T10:48:24.537Z,47.05
2023-05-13T10:53:30.287Z,48.63
2023-05-13T10:58:34.168Z,47.80
2023-05-13T11:03:35.921Z,47.78
2023-05-13T11:08:42.315Z,47.22
2023-05-13T11:13:46.315Z,50.52
2023-05-13T11:18:49.774Z,47.13
2023-05-13T11:23:53.388Z,48.61
2023-05-13T11:28:59.522Z,48.50
2023-05-13T11:34:17.729Z,50.40
2023-05-13T11:39:22.598Z,49.46
2023-05-13T11:44:25.687Z,48.81
2023-05-13T11:49:47.229Z,49.77
2023-05-13T11:54:51.253Z,50.77
2023-05-13T12:00:08.277Z,50.11
2023-05-13T12:05:11.729Z,50.71
2023-05-13T12:10:13.482Z,50.23
2023-05-13T12:15:21.514Z,49.50
2023-05-13T12:20:24.601Z,48.43
2023-05-13T12:25:38.405Z,49.91
2023-05-13T12:30:42.515Z,48.64
2023-05-13T12:35:48.363Z,46.43
2023-05-13T12:40:51.507Z,47.37
2023-05-13T12:45:54.735Z,46.01
2023-05-13T12:50:56.624Z,49.20
2023-05-13T12:56:00.378Z,49.30
2023-05-13T13:01:02.083Z,49.84
2023-05-13T13:06:04.038Z,49.23
2023-05-13T13:11:06.353Z,48.64
2023-05-13T13:16:09.154Z,49.71
2023-05-13T13:21:11.057Z,46.94
2023-05-13T13:26:12.988Z,48.32
2023-05-13T13:31:16.168Z,49.89
2023-05-13T13:36:18.438Z,49.58
2023-05-13T13:41:20.047Z,49.77
2023-05-13T13:46:23.875Z,48.28
2023-05-13T13:51:25.591Z,49.62
2023-05-13T13:56:27.201Z,48.88
2023-05-13T14:01:29.028Z,49.98
2023-05-13T14:06:31.214Z,50.16
2023-05-13T14:11:33.551Z,51.62
2023-05-13T14:16:35.925Z,50.59
2023-05-13T14:21:37.625Z,49.11
2023-05-13T14:26:39.415Z,50.29
2023-05-13T14:31:41.082Z,49.70
2023-05-13T14:36:42.752Z,49.34
2023-05-13T14:41:46.358Z,49.33
2023-05-13T14:46:48.047Z,47.59
2023-05-13T14:51:49.814Z,50.65
2023-05-13T14:56:52.864Z,49.20
2023-05-13T15:01:54.687Z,50.47
2023-05-13T15:06:56.759Z,48.91
2023-05-13T15:11:58.403Z,48.15
2023-05-13T15:17:00.269Z,49.41
2023-05-13T15:22:01.994Z,49.83
2023-05-13T15:27:03.753Z,50.29
2023-05-13T15:32:06.943Z,50.05
2023-05-13T15:37:10.118Z,49.92
2023-05-13T15:42:11.751Z,49.68
2023-05-13T15:47:13.531Z,49.78
2023-05-13T15:52:20.113Z,50.64
2023-05-13T15:57:21.794Z,51.44
2023-05-13T16:02:23.837Z,50.85
2023-05-13T16:07:25.644Z,51.40
2023-05-13T16:12:27.258Z,50.51
2023-05-13T16:17:29.361Z,51.05
2023-05-13T16:22:38.058Z,51.41
2023-05-13T16:27:43.026Z,51.71
2023-05-13T16:32:47.625Z,52.53
2023-05-13T16:37:50.254Z,53.10
2023-05-13T16:42:52.001Z,53.13
2023-05-13T16:47:53.762Z,52.62
2023-05-13T16:52:57.039Z,52.94
2023-05-13T16:57:59.266Z,53.13
2023-05-13T17:03:01.423Z,52.50
2023-05-13T17:08:04.109Z,53.55
2023-05-13T17:13:05.742Z,53.55
2023-05-13T17:18:07.598Z,53.66
2023-05-13T17:23:09.390Z,53.96
2023-05-13T17:28:11.635Z,54.67
2023-05-13T17:33:13.372Z,53.96
2023-05-13T17:38:15.413Z,53.71
2023-05-13T17:43:18.428Z,53.82
2023-05-13T17:48:20.183Z,53.34
2023-05-13T17:53:21.885Z,53.41
2023-05-13T17:58:23.501Z,54.21
2023-05-13T18:03:25.277Z,54.25
2023-05-13T18:08:26.973Z,54.71
2023-05-13T18:13:29.950Z,56.51
2023-05-13T18:18:31.731Z,56.97
2023-05-13T18:23:35.741Z,55.32
2023-05-13T18:28:37.457Z,57.45
2023-05-13T18:33:39.120Z,56.65
2023-05-13T18:38:40.863Z,56.79
2023-05-13T18:43:42.560Z,58.00
2023-05-13T18:48:44.237Z,59.03
2023-05-13T18:53:47.451Z,60.16
2023-05-13T18:58:49.475Z,61.39
2023-05-13T19:03:52.387Z,61.67
2023-05-13T19:08:54.069Z,62.40
2023-05-13T19:13:55.667Z,62.18
2023-05-13T19:18:57.310Z,63.53
2023-05-13T19:23:58.958Z,64.23
2023-05-13T19:29:01.213Z,64.58
2023-05-13T19:34:02.840Z,64.91
2023-05-13T19:39:04.556Z,64.30
2023-05-13T19:44:06.248Z,63.92
2023-05-13T19:49:08.300Z,64.08
2023-05-13T19:54:11.797Z,64.29
2023-05-13T19:59:13.429Z,64.24
2023-05-13T20:04:15.274Z,64.85
2023-05-13T20:09:16.930Z,65.19
2023-05-13T20:14:28.849Z,64.94
2023-05-13T20:19:30.464Z,66.01
2023-05-13T20:24:32.087Z,66.17
2023-05-13T20:29:38.181Z,67.71
2023-05-13T20:34:40.841Z,68.19
2023-05-13T20:39:42.706Z,68.66
2023-05-13T20:44:46.608Z,69.26
2023-05-13T20:49:48.234Z,68.38
2023-05-13T20:54:52.266Z,68.90
2023-05-13T20:59:53.941Z,69.19
2023-05-13T21:04:55.761Z,69.29
2023-05-13T21:09:57.320Z,68.68
2023-05-13T21:14:58.973Z,69.50
2023-05-13T21:20:00.621Z,70.38
2023-05-13T21:25:02.325Z,69.89
2023-05-13T21:30:05.265Z,70.74
2023-05-13T21:35:07.519Z,70.29
2023-05-13T21:40:09.633Z,70.63
2023-05-13T21:45:13.057Z,70.77
2023-05-13T21:50:16.705Z,71.24
2023-05-13T21:55:18.515Z,71.04
2023-05-13T22:00:21.593Z,71.44
2023-05-13T22:05:23.857Z,72.03
2023-05-13T22:10:25.651Z,72.09
2023-05-13T22:15:27.415Z,72.54
2023-05-13T22:20:28.975Z,73.39
2023-05-13T22:25:30.651Z,73.03
2023-05-13T22:30:32.240Z,74.21
2023-05-13T22:35:36.484Z,74.24
2023-05-13T22:40:38.298Z,74.85
2023-05-13T22:45:39.950Z,76.68
2023-05-13T22:50:41.594Z,76.55
2023-05-13T22:55:44.095Z,77.33
2023-05-13T23:00:49.302Z,76.96
2023-05-13T23:05:52.381Z,77.04
2023-05-13T23:10:54.030Z,76.66
2023-05-13T23:15:55.875Z,77.31
2023-05-13T23:20:57.668Z,76.58
2023-05-13T23:25:59.418Z,77.14
2023-05-13T23:31:01.127Z,76.60
2023-05-13T23:36:02.909Z,76.16
2023-05-13T23:41:04.539Z,76.34
2023-05-13T23:46:06.186Z,76.30
2023-05-13T23:51:07.893Z,75.66
2023-05-13T23:56:09.926Z,75.27
